Time;durP1;ratioP1;P1;durP2;ratioP2;P2;SDS_P1;SDS_P2;PMS_P1;PMS_P2;Temp;Humidity;BMP_temperature;BMP_pressure;BME280_temperature;BME280_humidity;BME280_pressure;Samples;Min_cycle;Max_cycle;Signal;HPM_P1;HPM_P2
2023/08/25 00:00:43;;;;;;;11.53;6.50;;;16.00;99.90;;;;;;5102325;28;20247;-64
2023/08/25 00:03:30;;;;;;;12.23;7.10;;;16.00;99.90;;;;;;5105728;27;20693;-65
2023/08/25 00:06:18;;;;;;;11.57;6.93;;;15.90;99.90;;;;;;5113245;27;20234;-65
2023/08/25 00:09:06;;;;;;;15.10;7.30;;;15.90;99.90;;;;;;5106708;28;20681;-64
2023/08/25 00:11:53;;;;;;;16.00;7.00;;;15.90;99.90;;;;;;5105359;28;20203;-65
2023/08/25 00:14:40;;;;;;;9.97;6.67;;;15.90;99.90;;;;;;5109252;28;20210;-64
2023/08/25 00:17:28;;;;;;;13.97;6.80;;;15.90;99.90;;;;;;5111647;27;20208;-64
2023/08/25 00:20:15;;;;;;;13.53;6.90;;;15.90;99.90;;;;;;5109242;27;20238;-64
2023/08/25 00:23:02;;;;;;;14.73;6.03;;;15.90;99.90;;;;;;5109158;28;20232;-64
2023/08/25 00:25:53;;;;;;;11.00;6.43;;;15.80;99.90;;;;;;5105148;28;20206;-64
2023/08/25 00:28:40;;;;;;;9.67;6.60;;;15.80;99.90;;;;;;5104700;27;20209;-64
2023/08/25 00:31:27;;;;;;;13.30;6.97;;;15.90;99.90;;;;;;5109555;27;20199;-64
2023/08/25 00:34:14;;;;;;;14.33;6.73;;;15.90;99.90;;;;;;5109048;28;20206;-65
2023/08/25 00:37:02;;;;;;;10.83;6.20;;;15.90;99.90;;;;;;5105645;27;20192;-64
2023/08/25 00:39:49;;;;;;;15.90;6.70;;;15.90;99.90;;;;;;5108232;28;20229;-65
2023/08/25 00:42:38;;;;;;;11.57;6.17;;;15.90;99.90;;;;;;5109037;28;20588;-65
2023/08/25 00:45:25;;;;;;;12.07;7.00;;;15.90;99.90;;;;;;5104656;27;20287;-64
2023/08/25 00:48:12;;;;;;;12.73;6.53;;;15.90;99.90;;;;;;5112290;27;20202;-64
2023/08/25 00:50:59;;;;;;;14.80;6.47;;;15.90;99.90;;;;;;5105215;28;20594;-65
2023/08/25 00:53:46;;;;;;;9.17;6.17;;;15.90;99.90;;;;;;5098721;28;20296;-64
2023/08/25 00:56:34;;;;;;;14.00;6.63;;;15.90;99.90;;;;;;5106360;27;20195;-64
2023/08/25 00:59:22;;;;;;;7.97;6.13;;;16.00;99.90;;;;;;5107610;28;20226;-64
2023/08/25 01:02:09;;;;;;;13.53;6.60;;;16.00;99.90;;;;;;5106838;27;20285;-64
2023/08/25 01:04:57;;;;;;;8.07;6.20;;;16.00;99.90;;;;;;5106391;27;20231;-65
2023/08/25 01:07:44;;;;;;;10.50;6.13;;;16.00;99.90;;;;;;5105942;28;20715;-65
2023/08/25 01:10:35;;;;;;;10.33;6.23;;;16.00;99.90;;;;;;5106551;28;20195;-65
2023/08/25 01:13:26;;;;;;;12.13;6.20;;;16.00;99.90;;;;;;5105189;28;20207;-64
2023/08/25 01:16:17;;;;;;;13.00;6.17;;;16.00;99.90;;;;;;5106169;28;20198;-65
2023/08/25 01:19:05;;;;;;;9.87;6.20;;;16.00;99.90;;;;;;5105304;27;20654;-65
2023/08/25 01:21:53;;;;;;;8.70;6.23;;;15.90;99.90;;;;;;5105010;27;20220;-64
2023/08/25 01:24:40;;;;;;;7.80;5.63;;;15.90;99.90;;;;;;5098472;27;20211;-64
2023/08/25 01:27:29;;;;;;;10.77;5.90;;;16.00;99.90;;;;;;5103983;27;20234;-64
2023/08/25 01:30:16;;;;;;;9.60;6.60;;;15.90;99.90;;;;;;5105294;27;20197;-64
2023/08/25 01:33:04;;;;;;;8.73;5.77;;;16.00;99.90;;;;;;5102608;28;20673;-65
2023/08/25 01:35:56;;;;;;;9.43;6.17;;;16.00;99.90;;;;;;5104381;28;20206;-64
2023/08/25 01:38:46;;;;;;;10.27;5.67;;;15.90;99.90;;;;;;5103969;27;20206;-65
2023/08/25 01:41:36;;;;;;;9.73;6.10;;;15.90;99.90;;;;;;5101761;27;20213;-64
2023/08/25 01:44:25;;;;;;;7.17;5.70;;;15.90;99.90;;;;;;5107021;28;20206;-64
2023/08/25 01:47:12;;;;;;;9.63;5.97;;;15.80;99.90;;;;;;5105941;27;20193;-65
2023/08/25 01:50:00;;;;;;;8.33;5.47;;;15.90;99.90;;;;;;5105175;28;20289;-66
2023/08/25 01:52:47;;;;;;;11.00;5.83;;;15.80;99.90;;;;;;5106205;28;20226;-65
2023/08/25 01:55:34;;;;;;;9.23;6.13;;;15.80;99.90;;;;;;5105875;27;20566;-64
2023/08/25 01:58:22;;;;;;;8.93;6.00;;;15.80;99.90;;;;;;5108073;28;20201;-64
2023/08/25 02:01:10;;;;;;;9.53;5.70;;;15.70;99.90;;;;;;5105932;28;20232;-65
2023/08/25 02:03:57;;;;;;;9.37;6.33;;;15.70;99.90;;;;;;5102852;28;20246;-66
2023/08/25 02:06:45;;;;;;;8.93;5.90;;;15.70;99.90;;;;;;5102944;28;20203;-66
2023/08/25 02:09:32;;;;;;;10.80;6.53;;;15.70;99.90;;;;;;5108572;27;20715;-65
2023/08/25 02:12:19;;;;;;;8.90;5.90;;;15.70;99.90;;;;;;5106404;27;20199;-64
2023/08/25 02:15:07;;;;;;;10.47;6.53;;;15.60;99.90;;;;;;5105069;27;20737;-64
2023/08/25 02:17:56;;;;;;;9.20;5.90;;;15.70;99.90;;;;;;5102610;28;20210;-64
2023/08/25 02:20:43;;;;;;;15.40;6.00;;;15.80;99.90;;;;;;5109111;27;20252;-64
2023/08/25 02:23:30;;;;;;;10.07;6.40;;;15.80;99.90;;;;;;5108751;27;20211;-65
2023/08/25 02:26:18;;;;;;;13.10;6.60;;;15.80;99.90;;;;;;5108612;27;20203;-65
2023/08/25 02:29:06;;;;;;;11.03;6.33;;;15.90;99.90;;;;;;5105829;27;20214;-65
2023/08/25 02:31:54;;;;;;;13.77;6.40;;;15.90;99.90;;;;;;5104705;27;20199;-65
2023/08/25 02:34:43;;;;;;;12.90;6.90;;;16.00;99.90;;;;;;5097274;28;20225;-64
2023/08/25 02:37:30;;;;;;;12.43;6.70;;;16.10;99.90;;;;;;5101239;28;20209;-65
2023/08/25 02:40:17;;;;;;;10.90;6.83;;;16.10;99.90;;;;;;5106640;28;20257;-64
2023/08/25 02:43:05;;;;;;;14.73;6.93;;;16.20;99.90;;;;;;5109247;27;20202;-65
2023/08/25 02:45:52;;;;;;;8.57;5.97;;;16.20;99.90;;;;;;5107399;28;20681;-65
2023/08/25 02:48:40;;;;;;;14.07;6.70;;;16.20;99.90;;;;;;5109355;27;20201;-64
2023/08/25 02:51:28;;;;;;;11.87;6.30;;;16.30;99.90;;;;;;5106932;28;20229;-65
2023/08/25 02:54:16;;;;;;;12.27;6.73;;;16.30;99.90;;;;;;5109399;27;20207;-65
2023/08/25 02:57:03;;;;;;;8.13;5.97;;;16.30;99.90;;;;;;5106470;28;20246;-65
2023/08/25 02:59:50;;;;;;;13.70;5.87;;;16.30;99.90;;;;;;5102938;28;20203;-66
2023/08/25 03:02:37;;;;;;;9.83;5.93;;;16.30;99.90;;;;;;5109988;27;20232;-65
2023/08/25 03:05:25;;;;;;;9.17;5.87;;;16.20;99.90;;;;;;5102363;28;20195;-65
2023/08/25 03:08:15;;;;;;;10.87;5.73;;;16.20;99.90;;;;;;5104687;28;20199;-65
2023/08/25 03:11:03;;;;;;;10.93;6.70;;;16.10;99.90;;;;;;5101188;28;20195;-65
2023/08/25 03:13:50;;;;;;;12.30;6.43;;;16.20;99.90;;;;;;5105125;28;20264;-65
2023/08/25 03:16:37;;;;;;;10.10;6.33;;;16.20;99.90;;;;;;5106201;28;20289;-65
2023/08/25 03:19:25;;;;;;;13.20;6.00;;;16.10;99.90;;;;;;5109557;27;20202;-65
2023/08/25 03:22:12;;;;;;;11.73;6.53;;;16.10;99.90;;;;;;5102912;28;20191;-65
2023/08/25 03:25:01;;;;;;;11.77;5.93;;;16.10;99.90;;;;;;5105230;28;20207;-65
2023/08/25 03:27:48;;;;;;;15.10;6.20;;;16.10;99.90;;;;;;5102277;28;20328;-65
2023/08/25 03:30:35;;;;;;;11.30;5.90;;;16.10;99.90;;;;;;5106354;28;20668;-65
2023/08/25 03:33:22;;;;;;;12.73;6.30;;;16.00;99.90;;;;;;5106388;28;20210;-65
2023/08/25 03:36:09;;;;;;;10.67;6.40;;;15.90;99.90;;;;;;5105252;28;20285;-66
2023/08/25 03:38:57;;;;;;;13.83;7.13;;;15.90;99.90;;;;;;5104263;28;20799;-65
2023/08/25 03:41:45;;;;;;;12.47;7.10;;;15.90;99.90;;;;;;5106199;28;20249;-65
2023/08/25 03:44:32;;;;;;;9.40;6.83;;;15.90;99.90;;;;;;5099028;28;20577;-65
2023/08/25 03:47:20;;;;;;;9.60;6.33;;;15.90;99.90;;;;;;5106510;28;20203;-65
2023/08/25 03:50:07;;;;;;;10.90;7.03;;;15.80;99.90;;;;;;5104644;28;20676;-65
2023/08/25 03:52:54;;;;;;;11.47;6.87;;;15.90;99.90;;;;;;5105425;28;20229;-65
2023/08/25 03:55:42;;;;;;;12.80;7.17;;;15.80;99.90;;;;;;5101843;28;20659;-65
2023/08/25 03:58:30;;;;;;;13.13;7.47;;;15.80;99.90;;;;;;5105570;28;20198;-65
2023/08/25 04:01:17;;;;;;;10.50;6.60;;;15.80;99.90;;;;;;5103801;28;20221;-65
2023/08/25 04:04:05;;;;;;;12.93;7.87;;;15.80;99.90;;;;;;5105246;28;20204;-65
2023/08/25 04:06:53;;;;;;;11.43;7.57;;;15.80;99.90;;;;;;5105789;28;20203;-65
2023/08/25 04:09:41;;;;;;;11.00;7.40;;;15.80;99.90;;;;;;5104214;28;20196;-64
2023/08/25 04:12:28;;;;;;;12.93;7.67;;;15.90;99.90;;;;;;5107632;28;20290;-65
2023/08/25 04:15:17;;;;;;;8.93;6.47;;;15.90;99.90;;;;;;5106711;28;20229;-65
2023/08/25 04:18:05;;;;;;;11.90;7.47;;;16.00;99.90;;;;;;5096935;28;20287;-65
2023/08/25 04:20:52;;;;;;;11.37;7.43;;;16.00;99.90;;;;;;5102870;28;20312;-65
2023/08/25 04:23:39;;;;;;;13.20;7.13;;;16.10;99.90;;;;;;5105309;28;20566;-65
2023/08/25 04:26:26;;;;;;;12.00;6.90;;;16.10;99.90;;;;;;5108590;28;20217;-65
2023/08/25 04:29:13;;;;;;;9.37;6.63;;;16.20;99.90;;;;;;5105289;28;20273;-65
2023/08/25 04:32:02;;;;;;;12.17;7.27;;;16.30;99.90;;;;;;5100471;28;20257;-65
2023/08/25 04:34:49;;;;;;;12.43;6.67;;;16.40;99.90;;;;;;5109391;27;20199;-65
2023/08/25 04:37:36;;;;;;;13.30;7.77;;;16.40;99.90;;;;;;5110387;27;20191;-65
2023/08/25 04:40:24;;;;;;;10.67;7.20;;;16.50;99.90;;;;;;5109790;28;20226;-65
2023/08/25 04:43:11;;;;;;;12.47;7.23;;;16.60;99.90;;;;;;5108832;27;20203;-65
2023/08/25 04:45:58;;;;;;;8.80;6.70;;;16.70;99.90;;;;;;5106710;27;20203;-66
2023/08/25 04:48:47;;;;;;;11.47;7.07;;;16.90;99.90;;;;;;5102912;27;20209;-65
2023/08/25 04:51:34;;;;;;;12.60;6.77;;;17.00;99.90;;;;;;5108445;28;20227;-65
2023/08/25 04:54:21;;;;;;;11.47;6.90;;;17.00;99.90;;;;;;5109220;27;20211;-65
2023/08/25 04:57:08;;;;;;;9.70;6.50;;;17.20;99.90;;;;;;5108776;27;20208;-65
2023/08/25 04:59:55;;;;;;;11.57;6.47;;;17.50;99.90;;;;;;5106204;27;20414;-65
2023/08/25 05:02:43;;;;;;;10.47;6.33;;;17.60;99.90;;;;;;5108705;28;20312;-65
2023/08/25 05:05:32;;;;;;;12.77;6.80;;;17.90;99.90;;;;;;5105886;27;20204;-65
2023/08/25 05:08:19;;;;;;;14.03;6.83;;;18.10;99.90;;;;;;5106639;28;20219;-65
2023/08/25 05:11:07;;;;;;;8.90;6.17;;;18.30;99.90;;;;;;5106080;28;20202;-66
2023/08/25 05:13:54;;;;;;;11.03;6.13;;;18.30;99.90;;;;;;5111699;27;20202;-65
2023/08/25 05:16:41;;;;;;;14.67;6.37;;;18.50;99.90;;;;;;5108032;27;20199;-65
2023/08/25 05:19:28;;;;;;;9.80;6.40;;;18.70;99.90;;;;;;5107919;28;20278;-65
2023/08/25 05:22:17;;;;;;;12.67;5.97;;;18.90;99.90;;;;;;5108121;27;20207;-65
2023/08/25 05:25:05;;;;;;;10.20;6.37;;;19.00;99.90;;;;;;5108503;27;20218;-65
2023/08/25 05:27:52;;;;;;;12.20;6.67;;;19.20;99.90;;;;;;5106041;27;20210;-66
2023/08/25 05:30:39;;;;;;;9.97;5.87;;;19.30;99.90;;;;;;5108641;27;20198;-66
2023/08/25 05:33:27;;;;;;;14.67;6.30;;;19.40;99.90;;;;;;5105301;27;20199;-65
2023/08/25 05:36:14;;;;;;;10.70;5.60;;;19.50;99.90;;;;;;5106101;28;20282;-65
2023/08/25 05:39:02;;;;;;;13.03;6.20;;;19.60;99.90;;;;;;5107988;27;20211;-66
2023/08/25 05:41:50;;;;;;;9.20;6.10;;;19.70;99.90;;;;;;5109768;28;20232;-65
2023/08/25 05:44:37;;;;;;;10.30;5.77;;;19.80;99.90;;;;;;5107418;28;20237;-65
2023/08/25 05:47:25;;;;;;;12.30;5.97;;;19.80;99.90;;;;;;5105336;28;20199;-65
2023/08/25 05:50:12;;;;;;;12.23;6.13;;;19.70;99.90;;;;;;5103582;27;20344;-66
2023/08/25 05:52:59;;;;;;;10.10;5.87;;;19.80;99.90;;;;;;5105444;28;20265;-66
2023/08/25 05:55:48;;;;;;;8.73;5.80;;;19.80;99.90;;;;;;5101060;28;20211;-66
2023/08/25 05:58:35;;;;;;;8.90;5.80;;;19.90;99.90;;;;;;5100519;28;20216;-65
2023/08/25 06:01:22;;;;;;;10.40;6.20;;;20.00;99.90;;;;;;5098579;28;20246;-65
2023/08/25 06:04:09;;;;;;;8.73;5.60;;;20.00;99.90;;;;;;5105016;27;20316;-65
2023/08/25 06:06:57;;;;;;;13.00;6.00;;;20.20;99.90;;;;;;5103821;28;20324;-65
2023/08/25 06:09:44;;;;;;;9.13;5.13;;;20.20;99.90;;;;;;5106653;27;20207;-65
2023/08/25 06:12:32;;;;;;;7.90;5.60;;;20.30;99.90;;;;;;5104353;28;20195;-65
2023/08/25 06:15:19;;;;;;;8.67;5.20;;;20.40;99.90;;;;;;5104579;28;20206;-66
2023/08/25 06:18:07;;;;;;;8.90;5.87;;;20.50;99.90;;;;;;5102856;28;20260;-66
2023/08/25 06:20:54;;;;;;;12.43;6.20;;;20.60;99.90;;;;;;5108209;27;20207;-65
2023/08/25 06:23:41;;;;;;;11.73;5.70;;;20.70;99.90;;;;;;5103016;28;20654;-65
2023/08/25 06:26:29;;;;;;;7.30;4.77;;;20.80;99.90;;;;;;5104739;28;20203;-65
2023/08/25 06:29:18;;;;;;;8.40;5.23;;;20.90;99.90;;;;;;5104000;28;20203;-66
2023/08/25 06:32:05;;;;;;;8.70;5.33;;;21.00;99.90;;;;;;5103148;28;20261;-65
2023/08/25 06:34:53;;;;;;;10.07;5.40;;;21.30;99.90;;;;;;5102268;28;20199;-65
2023/08/25 06:37:40;;;;;;;9.30;5.03;;;21.30;99.90;;;;;;5100171;28;20203;-65
2023/08/25 06:40:27;;;;;;;7.47;5.10;;;21.50;99.90;;;;;;5103301;28;20284;-65
2023/08/25 06:43:15;;;;;;;9.13;5.20;;;21.60;99.90;;;;;;5103086;28;20206;-65
2023/08/25 06:46:03;;;;;;;12.43;5.40;;;21.60;99.90;;;;;;5095934;28;20211;-65
2023/08/25 06:48:50;;;;;;;7.70;5.13;;;21.70;99.90;;;;;;5100054;28;20210;-66
2023/08/25 06:51:37;;;;;;;7.63;5.33;;;21.70;99.90;;;;;;5098159;28;20211;-65
2023/08/25 06:54:25;;;;;;;7.93;5.40;;;21.80;99.90;;;;;;5103206;28;20210;-65
2023/08/25 06:57:12;;;;;;;9.93;5.33;;;22.10;99.90;;;;;;5103969;28;20234;-65
2023/08/25 06:59:59;;;;;;;10.20;5.20;;;22.20;99.90;;;;;;5100562;28;20210;-66
2023/08/25 07:02:48;;;;;;;8.63;5.07;;;22.40;99.90;;;;;;5097878;28;20666;-65
2023/08/25 07:05:37;;;;;;;9.13;5.77;;;22.60;99.90;;;;;;5103500;28;20210;-65
2023/08/25 07:08:26;;;;;;;12.13;5.40;;;22.80;99.90;;;;;;5096916;28;20199;-65
2023/08/25 07:11:13;;;;;;;7.53;5.27;;;23.00;99.90;;;;;;5103467;28;20606;-66
2023/08/25 07:14:00;;;;;;;8.33;5.40;;;23.20;99.90;;;;;;5103352;28;20579;-66
2023/08/25 07:16:47;;;;;;;9.32;5.35;;;23.20;99.90;;;;;;5098183;28;20227;-65
2023/08/25 07:19:36;;;;;;;8.98;5.82;;;23.20;99.90;;;;;;5101756;28;20207;-65
2023/08/25 07:22:23;;;;;;;12.77;5.20;;;23.00;99.90;;;;;;5098901;28;20303;-65
2023/08/25 07:25:10;;;;;;;7.57;5.05;;;22.90;99.90;;;;;;5101772;28;20565;-65
2023/08/25 07:27:57;;;;;;;12.27;5.10;;;22.70;99.90;;;;;;5105413;27;20581;-65
2023/08/25 07:30:45;;;;;;;10.10;5.67;;;22.70;99.90;;;;;;5100248;28;20212;-66
2023/08/25 07:33:32;;;;;;;10.30;5.27;;;22.70;99.90;;;;;;5102429;28;20191;-65
2023/08/25 07:36:20;;;;;;;10.27;5.77;;;22.90;99.90;;;;;;5103974;28;20783;-65
2023/08/25 07:39:08;;;;;;;11.88;6.18;;;23.00;99.90;;;;;;5104246;28;20199;-65
2023/08/25 07:41:55;;;;;;;13.65;6.07;;;23.10;99.90;;;;;;5101304;28;20261;-65
2023/08/25 07:44:43;;;;;;;12.15;6.18;;;23.10;99.90;;;;;;5103131;28;20653;-66
2023/08/25 07:47:30;;;;;;;8.70;5.45;;;22.90;99.90;;;;;;5104483;28;20612;-65
2023/08/25 07:50:17;;;;;;;13.57;5.70;;;22.90;99.90;;;;;;5102416;28;20210;-66
2023/08/25 07:53:07;;;;;;;10.73;5.68;;;23.00;99.90;;;;;;5102443;28;20222;-65
2023/08/25 07:55:54;;;;;;;13.43;7.90;;;23.10;99.90;;;;;;5104131;28;20579;-65
2023/08/25 07:58:41;;;;;;;51.67;24.73;;;23.20;99.90;;;;;;5103093;28;20214;-65
2023/08/25 08:01:30;;;;;;;57.80;27.58;;;23.30;99.90;;;;;;5103945;28;20219;-65
2023/08/25 08:04:17;;;;;;;32.95;17.10;;;23.40;99.90;;;;;;5103296;28;20211;-65
2023/08/25 08:07:05;;;;;;;53.85;26.42;;;23.40;99.90;;;;;;5104036;28;20202;-65
2023/08/25 08:09:53;;;;;;;36.35;17.23;;;23.60;99.90;;;;;;5104075;27;20686;-65
2023/08/25 08:12:42;;;;;;;42.13;21.45;;;23.70;99.90;;;;;;5101197;27;20704;-65
2023/08/25 08:15:30;;;;;;;59.85;30.75;;;24.10;99.90;;;;;;5105709;27;20566;-65
2023/08/25 08:18:18;;;;;;;38.40;18.25;;;24.30;99.90;;;;;;5108516;27;20211;-65
2023/08/25 08:21:05;;;;;;;16.40;9.57;;;24.60;99.90;;;;;;5107549;28;20199;-65
2023/08/25 08:23:53;;;;;;;16.23;7.15;;;24.90;99.90;;;;;;5102729;27;20209;-65
2023/08/25 08:26:41;;;;;;;12.18;6.68;;;25.30;99.90;;;;;;5105479;28;20207;-65
2023/08/25 08:29:28;;;;;;;12.82;6.22;;;25.50;99.90;;;;;;5107719;27;20238;-65
2023/08/25 08:32:16;;;;;;;8.68;5.38;;;25.60;99.90;;;;;;5096624;27;20191;-66
2023/08/25 08:35:07;;;;;;;12.82;6.80;;;25.80;99.90;;;;;;5107231;28;20199;-65
2023/08/25 08:37:54;;;;;;;15.05;6.57;;;25.90;99.90;;;;;;5104699;27;20199;-66
2023/08/25 08:40:41;;;;;;;15.05;7.55;;;26.10;99.90;;;;;;5107587;28;20210;-65
2023/08/25 08:43:32;;;;;;;13.35;7.85;;;26.60;99.90;;;;;;5108839;27;20243;-65
2023/08/25 08:46:19;;;;;;;16.23;6.95;;;27.10;99.90;;;;;;5104973;27;20576;-65
2023/08/25 08:49:06;;;;;;;13.05;6.40;;;27.50;99.90;;;;;;5099944;27;20211;-66
2023/08/25 08:51:53;;;;;;;14.65;6.50;;;27.60;99.90;;;;;;5102858;28;20717;-65
2023/08/25 08:54:41;;;;;;;10.18;6.50;;;27.60;99.90;;;;;;5105944;28;20209;-66
2023/08/25 08:57:28;;;;;;;12.15;5.95;;;27.50;99.90;;;;;;5102085;27;20333;-65
2023/08/25 09:00:18;;;;;;;7.75;5.53;;;27.80;99.90;;;;;;5104001;28;20221;-66
2023/08/25 09:03:08;;;;;;;14.30;5.93;;;27.80;99.90;;;;;;5099829;28;20329;-66
2023/08/25 09:05:57;;;;;;;11.73;5.93;;;27.10;99.90;;;;;;5106003;28;20195;-65
2023/08/25 09:08:45;;;;;;;13.40;6.00;;;27.40;99.90;;;;;;5102407;28;20195;-66
2023/08/25 09:11:32;;;;;;;13.65;6.10;;;27.10;99.90;;;;;;5104939;28;20203;-65
2023/08/25 09:14:23;;;;;;;12.60;6.50;;;26.70;99.90;;;;;;5098121;28;20207;-66
2023/08/25 09:17:13;;;;;;;13.85;6.13;;;27.10;99.90;;;;;;5103015;28;20665;-65
2023/08/25 09:20:04;;;;;;;13.75;5.63;;;27.20;99.90;;;;;;5097624;28;20219;-64
2023/08/25 09:22:55;;;;;;;11.45;5.88;;;27.70;99.90;;;;;;5103471;28;20610;-66
2023/08/25 09:25:42;;;;;;;9.27;5.47;;;27.80;99.90;;;;;;5101505;28;20206;-65
2023/08/25 09:28:29;;;;;;;17.27;6.10;;;27.60;99.90;;;;;;5105643;28;20225;-65
2023/08/25 09:31:23;;;;;;;10.13;5.78;;;27.30;99.90;;;;;;5098948;28;20253;-68
2023/08/25 09:34:13;;;;;;;14.70;5.70;;;27.30;99.90;;;;;;5108082;28;20543;-68
2023/08/25 09:37:01;;;;;;;11.15;5.57;;;27.00;99.90;;;;;;5100193;28;20207;-68
2023/08/25 09:39:49;;;;;;;10.43;6.13;;;26.80;99.90;;;;;;5107821;28;20207;-65
2023/08/25 09:42:36;;;;;;;12.18;6.38;;;26.60;99.90;;;;;;5108214;28;20219;-65
2023/08/25 09:45:23;;;;;;;13.90;6.50;;;27.10;99.90;;;;;;5097456;28;20230;-65
2023/08/25 09:48:11;;;;;;;15.52;6.22;;;27.30;99.90;;;;;;5105184;28;20199;-65
2023/08/25 09:50:59;;;;;;;10.80;6.20;;;27.60;99.90;;;;;;5102389;28;20222;-65
2023/08/25 09:53:47;;;;;;;9.38;6.22;;;27.70;99.90;;;;;;5100370;28;20400;-66
2023/08/25 09:56:34;;;;;;;13.05;6.85;;;27.50;99.90;;;;;;5096260;28;20199;-65
2023/08/25 09:59:22;;;;;;;11.50;6.60;;;27.80;99.90;;;;;;5104597;28;20230;-65
2023/08/25 10:02:09;;;;;;;13.32;6.50;;;27.90;99.90;;;;;;5103382;28;20243;-65
2023/08/25 10:04:56;;;;;;;11.02;6.85;;;27.60;99.90;;;;;;5099888;28;20210;-65
2023/08/25 10:07:45;;;;;;;14.80;6.55;;;28.10;99.90;;;;;;5093990;28;20191;-65
2023/08/25 10:10:35;;;;;;;15.00;7.13;;;28.40;99.90;;;;;;5101086;28;20207;-66
2023/08/25 10:13:22;;;;;;;11.63;6.70;;;28.60;99.90;;;;;;5102588;28;20304;-64
2023/08/25 10:16:09;;;;;;;11.57;6.60;;;28.00;99.30;;;;;;5102138;28;20671;-65
2023/08/25 10:18:57;;;;;;;11.75;6.75;;;28.20;99.90;;;;;;5103866;28;20584;-64
2023/08/25 10:21:45;;;;;;;13.20;7.18;;;28.00;99.90;;;;;;5104081;28;20195;-65
2023/08/25 10:24:34;;;;;;;13.65;7.35;;;28.00;99.90;;;;;;5099216;28;20195;-66
2023/08/25 10:27:22;;;;;;;13.70;6.93;;;27.80;99.90;;;;;;5104373;28;20207;-64
2023/08/25 10:30:09;;;;;;;13.73;7.45;;;28.10;99.90;;;;;;5103718;28;20203;-64
2023/08/25 10:32:59;;;;;;;9.68;7.40;;;27.90;99.90;;;;;;5101319;28;20191;-65
2023/08/25 10:35:46;;;;;;;19.63;8.02;;;28.70;99.90;;;;;;5100494;28;20203;-65
2023/08/25 10:38:37;;;;;;;13.68;7.25;;;29.50;99.90;;;;;;5099740;28;20192;-65
2023/08/25 10:41:27;;;;;;;11.63;7.55;;;29.80;97.80;;;;;;5104681;28;20207;-65
2023/08/25 10:44:21;;;;;;;10.80;7.45;;;29.50;93.40;;;;;;5105372;28;20816;-66
2023/08/25 10:47:08;;;;;;;20.75;8.13;;;28.90;99.40;;;;;;5097513;28;20225;-65
2023/08/25 10:49:55;;;;;;;10.45;7.55;;;28.60;99.90;;;;;;5102347;27;20689;-65
2023/08/25 10:52:43;;;;;;;9.57;7.72;;;28.10;99.90;;;;;;5102541;28;20297;-65
2023/08/25 10:55:32;;;;;;;11.20;7.55;;;27.90;99.90;;;;;;5106321;28;20205;-65
2023/08/25 10:58:20;;;;;;;11.45;7.72;;;28.40;99.90;;;;;;5097052;28;20218;-65
2023/08/25 11:01:08;;;;;;;15.55;8.50;;;28.70;99.90;;;;;;5105934;28;20211;-67
2023/08/25 11:04:06;;;;;;;17.27;8.82;;;29.20;99.90;;;;;;5103214;28;20339;-65
2023/08/25 11:06:54;;;;;;;13.95;8.40;;;29.00;99.90;;;;;;5099535;28;20199;-65
2023/08/25 11:09:41;;;;;;;14.43;8.07;;;29.30;99.90;;;;;;5098833;28;20223;-66
2023/08/25 11:12:29;;;;;;;14.75;8.40;;;29.00;99.90;;;;;;5096319;28;20187;-65
2023/08/25 11:15:18;;;;;;;15.60;8.88;;;29.10;99.90;;;;;;5102992;28;20203;-65
2023/08/25 11:18:05;;;;;;;22.77;7.93;;;29.30;99.90;;;;;;5104235;28;20689;-66
2023/08/25 11:20:52;;;;;;;14.90;8.55;;;29.30;99.90;;;;;;5100765;28;20203;-65
2023/08/25 11:23:40;;;;;;;22.33;8.93;;;28.90;99.90;;;;;;5103489;28;20226;-65
2023/08/25 11:26:27;;;;;;;16.17;7.85;;;29.20;99.90;;;;;;5099627;28;20226;-65
2023/08/25 11:29:15;;;;;;;15.60;8.73;;;29.00;99.90;;;;;;5100280;28;20230;-65
2023/08/25 11:32:04;;;;;;;11.55;8.25;;;29.50;99.90;;;;;;5101654;28;20206;-65
2023/08/25 11:34:51;;;;;;;14.77;7.90;;;29.80;99.90;;;;;;5103156;28;20290;-65
2023/08/25 11:37:39;;;;;;;14.15;7.90;;;30.20;99.90;;;;;;5099211;28;20336;-65
2023/08/25 11:40:26;;;;;;;18.00;8.40;;;30.20;99.90;;;;;;5099757;28;20210;-65
2023/08/25 11:43:13;;;;;;;13.45;8.52;;;30.60;94.40;;;;;;5099429;28;20214;-64
2023/08/25 11:46:01;;;;;;;15.40;8.35;;;29.90;93.60;;;;;;5100870;28;20209;-65
2023/08/25 11:48:49;;;;;;;17.92;8.50;;;30.00;93.80;;;;;;5104843;28;20222;-65
2023/08/25 11:51:37;;;;;;;16.17;7.97;;;30.00;93.50;;;;;;5106982;28;20288;-65
2023/08/25 11:54:24;;;;;;;15.65;8.00;;;30.30;95.40;;;;;;5107951;28;20646;-65
2023/08/25 11:57:11;;;;;;;17.00;8.30;;;30.50;93.20;;;;;;5107183;28;20195;-65
2023/08/25 11:59:58;;;;;;;13.35;7.78;;;30.20;94.30;;;;;;5105742;28;20207;-64
2023/08/25 12:02:47;;;;;;;14.88;7.88;;;29.90;98.00;;;;;;5107207;28;20795;-67
2023/08/25 12:05:36;;;;;;;12.43;7.32;;;30.50;97.70;;;;;;5104112;28;20244;-65
2023/08/25 12:08:25;;;;;;;10.50;7.10;;;30.50;88.20;;;;;;5106245;28;20229;-64
2023/08/25 12:11:12;;;;;;;15.35;8.23;;;30.40;90.90;;;;;;5105690;28;20204;-66
2023/08/25 12:13:59;;;;;;;17.98;7.72;;;30.20;93.60;;;;;;5105488;28;20206;-65
2023/08/25 12:16:46;;;;;;;10.65;7.38;;;29.60;92.10;;;;;;5107407;28;20206;-65
2023/08/25 12:19:34;;;;;;;18.35;7.30;;;29.80;99.90;;;;;;5104130;28;20268;-64
2023/08/25 12:22:23;;;;;;;14.48;7.13;;;30.20;96.20;;;;;;5107062;28;20678;-65
2023/08/25 12:25:10;;;;;;;15.30;7.30;;;30.80;94.90;;;;;;5103497;28;20207;-65
2023/08/25 12:27:57;;;;;;;16.58;7.38;;;31.00;86.20;;;;;;5102312;28;20236;-64
2023/08/25 12:30:44;;;;;;;16.00;7.47;;;30.40;90.00;;;;;;5108231;28;20604;-66
2023/08/25 12:33:31;;;;;;;10.68;7.43;;;30.40;90.50;;;;;;5108692;28;20195;-64
2023/08/25 12:36:19;;;;;;;11.82;7.68;;;30.50;93.90;;;;;;5107006;28;20598;-65
2023/08/25 12:39:08;;;;;;;14.23;7.65;;;30.80;90.20;;;;;;5108191;28;20210;-66
2023/08/25 12:41:55;;;;;;;19.13;7.45;;;31.00;89.40;;;;;;5103255;28;20218;-65
2023/08/25 12:44:43;;;;;;;12.68;6.80;;;31.30;92.70;;;;;;5107370;28;20577;-65
2023/08/25 12:47:30;;;;;;;17.55;6.97;;;31.20;90.80;;;;;;5099976;28;20207;-65
2023/08/25 12:50:17;;;;;;;13.68;6.53;;;31.00;80.80;;;;;;5104662;28;20203;-65
2023/08/25 12:53:04;;;;;;;16.92;7.13;;;30.80;84.60;;;;;;5105389;28;20215;-65
2023/08/25 12:55:53;;;;;;;12.50;6.45;;;31.30;87.80;;;;;;5103578;28;20198;-64
2023/08/25 12:58:40;;;;;;;13.80;6.55;;;30.70;79.40;;;;;;5105854;28;20203;-64
2023/08/25 13:01:27;;;;;;;10.63;6.05;;;31.00;81.50;;;;;;5102920;28;20199;-65
2023/08/25 13:04:15;;;;;;;10.25;5.95;;;30.90;84.10;;;;;;5099991;28;20256;-65
2023/08/25 13:07:03;;;;;;;11.50;6.25;;;31.10;77.00;;;;;;5102443;28;20203;-64
2023/08/25 13:09:50;;;;;;;11.10;6.18;;;31.00;79.60;;;;;;5107297;28;20215;-65
2023/08/25 13:12:39;;;;;;;12.35;5.88;;;31.20;74.70;;;;;;5105929;28;20204;-65
2023/08/25 13:15:26;;;;;;;13.43;5.70;;;30.80;77.70;;;;;;5105607;28;20274;-66
2023/08/25 13:18:13;;;;;;;10.60;6.35;;;31.00;75.20;;;;;;5104049;28;20211;-64
2023/08/25 13:21:01;;;;;;;15.10;6.70;;;31.10;76.20;;;;;;5101732;28;20226;-64
2023/08/25 13:23:48;;;;;;;16.20;6.68;;;31.00;75.60;;;;;;5106462;28;20233;-65
2023/08/25 13:26:35;;;;;;;13.88;6.78;;;30.90;76.40;;;;;;5105360;28;20210;-65
2023/08/25 13:29:24;;;;;;;9.25;6.45;;;30.70;81.90;;;;;;5103442;28;20199;-64
2023/08/25 13:32:11;;;;;;;19.20;6.50;;;31.00;79.40;;;;;;5102212;28;20287;-65
2023/08/25 13:34:58;;;;;;;17.33;6.45;;;31.30;74.20;;;;;;5106457;28;20199;-65
2023/08/25 13:37:46;;;;;;;15.85;5.97;;;31.90;78.30;;;;;;5103291;28;20593;-65
2023/08/25 13:40:33;;;;;;;16.10;6.40;;;31.80;73.30;;;;;;5104195;28;20199;-64
2023/08/25 13:43:20;;;;;;;7.47;5.68;;;31.90;77.80;;;;;;5103000;28;20222;-64
2023/08/25 13:46:09;;;;;;;15.30;6.32;;;31.70;70.90;;;;;;5104043;28;20203;-64
2023/08/25 13:48:56;;;;;;;12.18;5.65;;;31.20;76.20;;;;;;5101762;28;20298;-65
2023/08/25 13:51:43;;;;;;;9.13;5.82;;;30.90;73.60;;;;;;5105049;28;20234;-64
2023/08/25 13:54:30;;;;;;;12.00;6.05;;;31.10;76.90;;;;;;5104661;28;20191;-64
2023/08/25 13:57:17;;;;;;;11.63;5.32;;;31.00;78.20;;;;;;5106362;28;20210;-65
2023/08/25 14:00:06;;;;;;;10.98;5.35;;;30.80;85.20;;;;;;5099804;28;20864;-64
2023/08/25 14:02:55;;;;;;;9.70;5.32;;;31.00;81.40;;;;;;5105724;28;20234;-64
2023/08/25 14:05:42;;;;;;;7.90;5.10;;;31.40;78.40;;;;;;5103155;28;20211;-65
2023/08/25 14:08:29;;;;;;;9.77;4.65;;;31.40;72.90;;;;;;5102989;28;20200;-68
2023/08/25 14:11:16;;;;;;;8.20;4.30;;;30.50;75.80;;;;;;5102365;28;20696;-65
2023/08/25 14:14:03;;;;;;;7.85;4.30;;;30.80;75.30;;;;;;5101581;28;20639;-66
2023/08/25 14:16:51;;;;;;;5.82;3.70;;;31.40;75.00;;;;;;5104501;28;20204;-66
2023/08/25 14:19:39;;;;;;;7.70;3.83;;;30.90;66.90;;;;;;5104345;28;20299;-65
2023/08/25 14:22:27;;;;;;;5.95;3.58;;;30.80;69.10;;;;;;5103066;28;20552;-64